Cleveland, Ohio
Current Conditions -  °F | °C
As of 9:53 AM on Monday 24 Nov 2014 (Local Time) from KBKL Reporting Station
Broken Clouds Broken Clouds  
Wind Chill: 63°   Ceiling: 3600
Heat Index: 63°   Visibility: 10mi
Dew Point: 53°   Wind: 24mph
Humidity: 70%   Direction: 190°S
Pressure: 29.23"   Gusts: 37mph
Location:  41.5°N, 81.69°W
Report Text: KBKL 241453Z 19021G32KT 10SM SCT031 BKN036 BKN043 17/12 A2923 RMK AO2 PK WND 19034/1438 SLP896 T01720117 58008
Loading
Personal Weather Stations






























Interactive Weather Map New forecast layout! Learn more

10-Day Weather Forecast

Advertisements
Track Severe Weather on mobile